createdAt,value
2022-10-18T00:02:03.915Z,19.20
2022-10-18T00:04:30.445Z,19.10
2022-10-18T00:06:57.128Z,19.20
2022-10-18T00:09:23.598Z,19.00
2022-10-18T00:11:50.533Z,19.00
2022-10-18T00:14:17.373Z,19.10
2022-10-18T00:16:43.820Z,19.20
2022-10-18T00:19:10.261Z,19.00
2022-10-18T00:21:36.851Z,19.20
2022-10-18T00:24:03.775Z,19.20
2022-10-18T00:26:30.782Z,19.20
2022-10-18T00:29:04.587Z,19.20
2022-10-18T00:31:33.638Z,19.30
2022-10-18T00:34:00.943Z,19.30
2022-10-18T00:36:29.246Z,19.30
2022-10-18T00:38:55.850Z,19.30
2022-10-18T00:41:25.226Z,19.30
2022-10-18T00:43:58.981Z,19.40
2022-10-18T00:46:27.974Z,19.00
2022-10-18T00:48:55.880Z,18.90
2022-10-18T00:51:23.251Z,19.10
2022-10-18T00:53:50.039Z,19.20
2022-10-18T00:56:17.246Z,19.20
2022-10-18T00:58:44.354Z,19.20
2022-10-18T01:01:10.864Z,19.20
2022-10-18T01:03:37.910Z,19.20
2022-10-18T01:06:04.634Z,18.90
2022-10-18T01:08:45.259Z,18.90
2022-10-18T01:11:33.964Z,18.80
2022-10-18T01:14:02.176Z,19.00
2022-10-18T01:16:39.709Z,19.20
2022-10-18T01:19:15.221Z,18.90
2022-10-18T01:21:43.415Z,18.80
2022-10-18T01:24:31.174Z,18.90
2022-10-18T01:27:05.491Z,19.00
2022-10-18T01:30:02.233Z,19.00
2022-10-18T01:32:43.998Z,19.10
2022-10-18T01:35:16.299Z,19.20
2022-10-18T01:37:43.602Z,19.10
2022-10-18T01:40:11.672Z,18.80
2022-10-18T01:42:38.124Z,18.70
2022-10-18T01:45:05.186Z,18.90
2022-10-18T01:47:32.324Z,18.90
2022-10-18T01:50:00.896Z,19.00
2022-10-18T01:52:27.618Z,18.90
2022-10-18T01:54:55.485Z,19.00
2022-10-18T01:57:33.764Z,18.60
2022-10-18T02:00:05.757Z,18.90
2022-10-18T02:02:40.615Z,19.10
2022-10-18T02:05:25.896Z,19.20
2022-10-18T02:08:00.328Z,19.10
2022-10-18T02:10:47.191Z,19.00
2022-10-18T02:13:16.428Z,18.90
2022-10-18T02:15:46.452Z,18.60
2022-10-18T02:18:25.803Z,18.80
2022-10-18T02:20:52.937Z,19.20
2022-10-18T02:23:22.003Z,19.00
2022-10-18T02:25:48.424Z,18.90
2022-10-18T02:28:15.057Z,18.90
2022-10-18T02:30:49.943Z,19.20
2022-10-18T02:33:35.517Z,19.10
2022-10-18T02:36:28.166Z,19.30
2022-10-18T02:38:59.311Z,19.10
2022-10-18T02:41:27.162Z,19.20
2022-10-18T02:43:54.365Z,19.30
2022-10-18T02:46:24.063Z,19.20
2022-10-18T02:48:50.852Z,19.30
2022-10-18T02:51:17.347Z,19.30
2022-10-18T02:53:43.811Z,19.50
2022-10-18T02:56:10.234Z,19.40
2022-10-18T02:58:36.718Z,19.10
2022-10-18T03:01:03.297Z,18.90
2022-10-18T03:03:29.804Z,18.80
2022-10-18T03:05:56.234Z,19.10
2022-10-18T03:08:22.737Z,19.20
2022-10-18T03:10:49.335Z,19.20
2022-10-18T03:13:15.900Z,19.20
2022-10-18T03:15:42.583Z,19.20
2022-10-18T03:18:09.069Z,19.10
2022-10-18T03:20:35.679Z,19.20
2022-10-18T03:23:03.251Z,19.20
2022-10-18T03:25:29.678Z,19.40
2022-10-18T03:27:56.112Z,19.50
2022-10-18T03:30:22.568Z,19.50
2022-10-18T03:32:49.062Z,19.60
2022-10-18T03:35:15.657Z,19.50
2022-10-18T03:37:42.162Z,19.40
2022-10-18T03:40:09.096Z,19.30
2022-10-18T03:42:35.580Z,19.30
2022-10-18T03:45:02.044Z,19.30
2022-10-18T03:47:28.484Z,19.50
2022-10-18T03:49:57.163Z,19.50
2022-10-18T03:52:23.989Z,19.50
2022-10-18T03:54:50.424Z,19.40
2022-10-18T03:57:16.969Z,19.00
2022-10-18T03:59:43.501Z,18.90
2022-10-18T04:02:09.962Z,19.00
2022-10-18T04:04:36.405Z,19.20
2022-10-18T04:07:02.881Z,19.50
2022-10-18T04:09:29.337Z,19.60
2022-10-18T04:11:55.778Z,19.50
2022-10-18T04:14:22.370Z,19.60
2022-10-18T04:16:48.948Z,19.40
2022-10-18T04:19:15.506Z,19.40
2022-10-18T04:21:41.974Z,19.20
2022-10-18T04:24:08.429Z,19.40
2022-10-18T04:26:34.897Z,19.20
2022-10-18T04:29:01.439Z,19.30
2022-10-18T04:31:27.975Z,19.40
2022-10-18T04:33:54.661Z,19.30
2022-10-18T04:36:21.115Z,19.40
2022-10-18T04:38:47.574Z,19.30
2022-10-18T04:41:14.096Z,19.50
2022-10-18T04:43:40.604Z,19.30
2022-10-18T04:46:07.106Z,19.40
2022-10-18T04:48:33.601Z,19.50
2022-10-18T04:51:00.215Z,19.50
2022-10-18T04:53:26.750Z,19.30
2022-10-18T04:55:53.197Z,19.40
2022-10-18T04:58:19.826Z,19.50
2022-10-18T05:00:47.601Z,19.50
2022-10-18T05:03:14.922Z,19.50
2022-10-18T05:06:00.853Z,19.40
2022-10-18T05:08:27.965Z,19.30
2022-10-18T05:10:54.535Z,19.30
2022-10-18T05:13:21.086Z,19.30
2022-10-18T05:15:47.732Z,19.40
2022-10-18T05:18:14.203Z,19.40
2022-10-18T05:20:40.728Z,19.30
2022-10-18T05:23:10.628Z,19.50
2022-10-18T05:25:41.778Z,19.50
2022-10-18T05:28:15.687Z,19.30
2022-10-18T05:30:53.911Z,19.40
2022-10-18T05:33:20.393Z,19.20
2022-10-18T05:35:46.841Z,19.40
2022-10-18T05:38:13.337Z,19.40
2022-10-18T05:40:39.846Z,19.40
2022-10-18T05:43:06.327Z,19.10
2022-10-18T05:45:32.755Z,19.30
2022-10-18T05:47:59.237Z,19.20
2022-10-18T05:50:25.747Z,19.30
2022-10-18T05:53:02.703Z,19.10
2022-10-18T05:55:38.688Z,19.20
2022-10-18T05:58:05.195Z,19.30
2022-10-18T06:00:31.625Z,19.10
2022-10-18T06:03:00.234Z,18.70
2022-10-18T06:05:27.096Z,18.50
2022-10-18T06:07:53.616Z,18.40
2022-10-18T06:10:20.104Z,18.20
2022-10-18T06:12:46.569Z,17.70
2022-10-18T06:15:13.094Z,17.50
2022-10-18T06:17:39.604Z,17.30
2022-10-18T06:20:07.443Z,17.40
2022-10-18T06:22:34.046Z,17.60
2022-10-18T06:25:00.565Z,17.90
2022-10-18T06:27:27.083Z,18.20
2022-10-18T06:29:53.554Z,18.50
2022-10-18T06:32:20.086Z,18.40
2022-10-18T06:34:46.567Z,18.40
2022-10-18T06:37:13.125Z,18.80
2022-10-18T06:39:40.911Z,18.80
2022-10-18T06:42:07.795Z,18.40
2022-10-18T06:44:34.330Z,17.90
2022-10-18T06:47:00.928Z,17.80
2022-10-18T06:49:27.368Z,18.10
2022-10-18T06:51:54.198Z,18.50
2022-10-18T06:54:20.873Z,18.60
2022-10-18T06:56:47.327Z,18.50
2022-10-18T06:59:14.050Z,17.80
2022-10-18T07:01:40.547Z,17.50
2022-10-18T07:04:07.079Z,17.30
2022-10-18T07:06:33.514Z,17.60
2022-10-18T07:09:00.197Z,18.00
2022-10-18T07:11:27.033Z,18.40
2022-10-18T07:13:54.835Z,18.40
2022-10-18T07:16:21.357Z,18.30
2022-10-18T07:18:50.143Z,17.80
2022-10-18T07:21:21.501Z,17.60
2022-10-18T07:23:48.884Z,17.90
2022-10-18T07:26:20.538Z,18.20
2022-10-18T07:28:49.791Z,17.80
2022-10-18T07:31:16.290Z,17.80
2022-10-18T07:33:45.641Z,17.90
2022-10-18T07:36:13.230Z,17.60
2022-10-18T07:38:40.561Z,18.00
2022-10-18T07:41:08.202Z,18.20
2022-10-18T07:43:35.358Z,18.40
2022-10-18T07:46:04.241Z,18.50
2022-10-18T07:48:31.157Z,18.40
2022-10-18T07:50:59.549Z,18.60
2022-10-18T07:53:26.353Z,18.70
2022-10-18T07:55:52.866Z,19.10
2022-10-18T07:58:19.391Z,19.10
2022-10-18T08:00:45.926Z,18.90
2022-10-18T08:03:12.498Z,18.50
2022-10-18T08:05:38.952Z,18.10
2022-10-18T08:08:07.946Z,18.40
2022-10-18T08:10:35.641Z,18.50
2022-10-18T08:13:02.214Z,18.40
2022-10-18T08:15:28.644Z,18.70
2022-10-18T08:17:55.082Z,18.70
2022-10-18T08:20:30.539Z,19.00
2022-10-18T08:23:00.196Z,18.90
2022-10-18T08:25:27.313Z,19.00
2022-10-18T08:27:53.824Z,19.00
2022-10-18T08:30:20.366Z,18.60
2022-10-18T08:32:46.841Z,18.30
2022-10-18T08:35:13.367Z,18.40
2022-10-18T08:37:40.306Z,18.50
2022-10-18T08:40:07.395Z,18.60
2022-10-18T08:42:43.676Z,18.60
2022-10-18T08:45:23.317Z,18.70
2022-10-18T08:47:57.755Z,19.00
2022-10-18T08:50:27.821Z,18.90
2022-10-18T08:53:34.060Z,18.90
2022-10-18T08:56:14.533Z,18.30
2022-10-18T08:58:44.253Z,17.80
2022-10-18T09:01:22.028Z,17.60
2022-10-18T09:04:26.137Z,17.20
2022-10-18T09:07:14.606Z,17.20
2022-10-18T09:09:59.790Z,17.00
2022-10-18T09:12:43.662Z,17.00
2022-10-18T09:15:27.143Z,17.10
2022-10-18T09:18:14.436Z,17.00
2022-10-18T09:20:51.072Z,16.90
2022-10-18T09:23:23.055Z,16.90
2022-10-18T09:26:19.186Z,17.00
2022-10-18T09:29:13.926Z,17.20
2022-10-18T09:32:09.560Z,17.30
2022-10-18T09:34:52.077Z,17.10
2022-10-18T09:37:20.212Z,17.40
2022-10-18T09:39:48.554Z,17.50
2022-10-18T09:42:20.522Z,17.60
2022-10-18T09:44:57.258Z,17.60
2022-10-18T09:47:33.953Z,17.50
2022-10-18T09:50:03.713Z,17.30
2022-10-18T09:52:43.561Z,17.50
2022-10-18T09:55:16.810Z,17.20
2022-10-18T09:57:50.468Z,17.80
2022-10-18T10:00:22.960Z,17.60
2022-10-18T10:02:49.458Z,17.20
2022-10-18T10:05:16.194Z,17.10
2022-10-18T10:07:47.477Z,17.40
2022-10-18T10:10:19.778Z,17.90
2022-10-18T10:12:46.567Z,17.70
2022-10-18T10:15:28.174Z,18.10
2022-10-18T10:18:01.352Z,18.20
2022-10-18T10:20:42.347Z,18.00
2022-10-18T10:23:29.943Z,17.60
2022-10-18T10:25:59.052Z,17.50
2022-10-18T10:28:33.511Z,17.70
2022-10-18T10:31:25.048Z,17.30
2022-10-18T10:34:20.716Z,17.00
2022-10-18T10:36:52.571Z,16.90
2022-10-18T10:39:20.872Z,17.00
2022-10-18T10:41:48.796Z,17.20
2022-10-18T10:44:17.307Z,17.50
2022-10-18T10:46:44.460Z,17.80
2022-10-18T10:49:39.549Z,17.50
2022-10-18T10:52:08.860Z,17.30
2022-10-18T10:54:52.135Z,17.20
2022-10-18T10:57:28.787Z,17.40
2022-10-18T10:59:57.414Z,17.20
2022-10-18T11:02:34.906Z,17.40
2022-10-18T11:05:22.521Z,17.20
2022-10-18T11:07:51.781Z,17.30
2022-10-18T11:10:28.641Z,17.50
2022-10-18T11:13:05.451Z,17.10
2022-10-18T11:16:05.280Z,17.10
2022-10-18T11:18:33.997Z,17.40
2022-10-18T11:21:08.155Z,17.10
2022-10-18T11:23:36.926Z,17.10
2022-10-18T11:26:09.468Z,17.50
2022-10-18T11:28:36.038Z,17.20
2022-10-18T11:31:08.319Z,17.30
2022-10-18T11:34:14.848Z,17.60
2022-10-18T11:37:27.240Z,17.90
2022-10-18T11:40:20.856Z,18.20
2022-10-18T11:43:20.195Z,18.50
2022-10-18T11:45:57.793Z,18.60
2022-10-18T11:48:49.691Z,18.40
2022-10-18T11:51:50.274Z,18.20
2022-10-18T11:54:27.598Z,18.30
2022-10-18T11:57:10.902Z,18.20
2022-10-18T11:59:41.440Z,18.60
2022-10-18T12:02:46.037Z,18.60
2022-10-18T12:05:23.016Z,18.20
2022-10-18T12:07:57.401Z,18.60
2022-10-18T12:10:37.728Z,18.90
2022-10-18T12:13:18.623Z,18.90
2022-10-18T12:15:45.640Z,19.00
2022-10-18T12:18:17.548Z,19.20
2022-10-18T12:20:49.150Z,18.90
2022-10-18T12:23:34.591Z,18.10
2022-10-18T12:26:03.842Z,18.10
2022-10-18T12:28:39.228Z,18.40
2022-10-18T12:31:23.889Z,18.10
2022-10-18T12:33:56.936Z,18.30
2022-10-18T12:37:01.161Z,18.30
2022-10-18T12:39:43.977Z,18.70
2022-10-18T12:42:26.222Z,18.70
2022-10-18T12:45:20.397Z,18.50
2022-10-18T12:47:46.910Z,18.20
2022-10-18T12:50:39.034Z,18.40
2022-10-18T12:53:20.910Z,18.60
2022-10-18T12:55:51.274Z,18.70
2022-10-18T12:58:22.406Z,18.40
2022-10-18T13:00:48.935Z,17.60
2022-10-18T13:03:18.199Z,17.60
2022-10-18T13:05:56.197Z,17.60
2022-10-18T13:08:30.073Z,17.90
2022-10-18T13:11:08.857Z,18.00
2022-10-18T13:13:53.922Z,18.10
2022-10-18T13:16:20.348Z,18.20
2022-10-18T13:18:57.064Z,18.10
2022-10-18T13:21:32.657Z,18.00
2022-10-18T13:23:59.117Z,18.20
2022-10-18T13:26:34.424Z,18.00
2022-10-18T13:29:26.204Z,17.80
2022-10-18T13:34:49.640Z,18.30
2022-10-18T13:37:16.081Z,18.10
2022-10-18T13:39:42.620Z,18.30
2022-10-18T13:42:15.321Z,18.00
2022-10-18T13:44:44.475Z,18.20
2022-10-18T13:47:14.813Z,18.30
2022-10-18T13:50:02.398Z,18.10
2022-10-18T13:52:38.363Z,17.90
2022-10-18T13:55:42.394Z,17.80
2022-10-18T13:58:34.649Z,17.90
2022-10-18T14:01:22.980Z,17.80
2022-10-18T14:04:32.429Z,17.70
2022-10-18T14:07:02.335Z,18.10
2022-10-18T14:09:52.480Z,18.10
2022-10-18T14:12:34.889Z,18.30
2022-10-18T14:15:13.121Z,18.30
2022-10-18T14:17:44.169Z,18.10
2022-10-18T14:20:29.531Z,18.00
2022-10-18T14:23:04.127Z,18.30
2022-10-18T14:25:35.799Z,18.30
2022-10-18T14:28:10.022Z,18.70
2022-10-18T14:31:04.328Z,19.10
2022-10-18T14:33:38.717Z,19.20
2022-10-18T14:36:12.904Z,19.40
2022-10-18T14:38:53.658Z,19.40
2022-10-18T14:41:20.180Z,19.30
2022-10-18T14:43:48.111Z,19.60
2022-10-18T14:46:30.207Z,19.50
2022-10-18T14:49:00.023Z,19.60
2022-10-18T14:51:29.080Z,19.50
2022-10-18T14:53:55.850Z,19.20
2022-10-18T14:56:33.518Z,19.30
2022-10-18T14:59:05.194Z,19.30
2022-10-18T15:01:32.882Z,19.50
2022-10-18T15:04:09.881Z,19.50
2022-10-18T15:06:36.392Z,19.70
2022-10-18T15:09:04.323Z,19.60
2022-10-18T15:11:31.490Z,19.70
2022-10-18T15:14:02.909Z,19.90
2022-10-18T15:16:30.900Z,19.70
2022-10-18T15:19:06.408Z,19.40
2022-10-18T15:21:34.459Z,19.50
2022-10-18T15:24:20.454Z,19.50
2022-10-18T15:26:47.653Z,19.20
2022-10-18T15:29:21.291Z,19.20
2022-10-18T15:31:49.698Z,18.90
2022-10-18T15:34:20.572Z,18.90
2022-10-18T15:36:48.811Z,18.90
2022-10-18T15:39:27.230Z,18.60
2022-10-18T15:42:01.413Z,18.80
2022-10-18T15:44:38.008Z,18.70
2022-10-18T15:47:13.654Z,18.70
2022-10-18T15:49:46.278Z,18.50
2022-10-18T15:52:21.787Z,18.40
2022-10-18T15:57:20.101Z,18.40
2022-10-18T15:59:57.448Z,18.60
2022-10-18T16:02:23.991Z,18.60
2022-10-18T16:04:50.442Z,18.70
2022-10-18T16:07:17.052Z,18.30
2022-10-18T16:09:43.632Z,18.20
2022-10-18T16:12:10.129Z,18.20
2022-10-18T16:14:36.658Z,18.30
2022-10-18T16:17:05.989Z,18.50
2022-10-18T16:19:33.036Z,18.00
2022-10-18T16:22:06.032Z,18.20
2022-10-18T16:24:33.230Z,18.30
2022-10-18T16:26:59.694Z,18.30
2022-10-18T16:29:28.565Z,18.20
2022-10-18T16:31:58.005Z,18.20
2022-10-18T16:34:28.104Z,18.10
2022-10-18T16:36:55.275Z,18.20
2022-10-18T16:39:22.147Z,18.30
2022-10-18T16:41:48.678Z,18.30
2022-10-18T16:44:16.715Z,18.20
2022-10-18T16:46:43.346Z,18.10
2022-10-18T16:49:24.951Z,18.20
2022-10-18T16:51:54.744Z,18.10
2022-10-18T16:54:21.565Z,18.00
2022-10-18T16:56:49.865Z,18.00
2022-10-18T16:59:43.335Z,18.00
2022-10-18T17:02:11.464Z,17.90
2022-10-18T17:04:37.992Z,17.90
2022-10-18T17:07:04.995Z,17.80
2022-10-18T17:09:31.508Z,17.60
2022-10-18T17:11:57.950Z,17.60
2022-10-18T17:14:24.394Z,17.70
2022-10-18T17:16:54.725Z,17.40
2022-10-18T17:19:23.736Z,17.50
2022-10-18T17:21:50.278Z,17.50
2022-10-18T17:24:16.758Z,17.50
2022-10-18T17:26:43.379Z,17.50
2022-10-18T17:29:09.992Z,17.40
2022-10-18T17:31:36.472Z,17.40
2022-10-18T17:34:03.770Z,17.40
2022-10-18T17:36:31.874Z,16.60
2022-10-18T17:38:58.566Z,15.70
2022-10-18T17:41:25.029Z,16.00
2022-10-18T17:43:51.505Z,16.50
2022-10-18T17:46:19.376Z,16.70
2022-10-18T17:48:46.404Z,16.90
2022-10-18T17:51:15.338Z,17.00
2022-10-18T17:53:42.159Z,16.80
2022-10-18T17:56:09.775Z,16.90
2022-10-18T17:58:36.313Z,16.70
2022-10-18T18:01:13.882Z,16.80
2022-10-18T18:03:41.009Z,16.40
2022-10-18T18:06:15.018Z,16.60
2022-10-18T18:08:41.451Z,16.80
2022-10-18T18:11:08.118Z,16.90
2022-10-18T18:13:34.802Z,16.80
2022-10-18T18:16:12.930Z,16.70
2022-10-18T18:18:39.625Z,16.50
2022-10-18T18:21:06.142Z,16.50
2022-10-18T18:23:32.650Z,16.50
2022-10-18T18:25:59.902Z,16.60
2022-10-18T18:28:26.452Z,16.30
2022-10-18T18:30:52.967Z,16.00
2022-10-18T18:33:19.465Z,16.20
2022-10-18T18:35:55.140Z,16.30
2022-10-18T18:38:21.635Z,16.20
2022-10-18T18:40:48.096Z,16.20
2022-10-18T18:43:29.433Z,16.10
2022-10-18T18:45:55.975Z,16.00
2022-10-18T18:48:22.454Z,16.20
2022-10-18T18:50:50.605Z,16.10
2022-10-18T18:53:17.476Z,16.40
2022-10-18T18:55:44.141Z,16.40
2022-10-18T18:58:11.512Z,16.40
2022-10-18T19:00:41.805Z,16.20
2022-10-18T19:03:11.537Z,16.10
2022-10-18T19:05:38.323Z,16.10
2022-10-18T19:08:05.599Z,16.20
2022-10-18T19:10:32.529Z,16.00
2022-10-18T19:12:59.223Z,16.10
2022-10-18T19:15:26.032Z,16.20
2022-10-18T19:17:52.529Z,16.20
2022-10-18T19:20:19.134Z,16.20
2022-10-18T19:22:45.884Z,16.20
2022-10-18T19:25:12.807Z,16.00
2022-10-18T19:27:39.459Z,16.00
2022-10-18T19:30:08.994Z,15.80
2022-10-18T19:32:38.559Z,15.70
2022-10-18T19:35:05.790Z,15.70
2022-10-18T19:37:32.482Z,15.80
2022-10-18T19:39:59.593Z,15.90
2022-10-18T19:42:30.270Z,15.90
2022-10-18T19:44:57.922Z,15.90
2022-10-18T19:47:24.450Z,15.90
2022-10-18T19:49:52.711Z,15.80
2022-10-18T19:52:19.230Z,15.70
2022-10-18T19:54:45.689Z,15.70
2022-10-18T19:57:12.207Z,15.80
2022-10-18T19:59:42.413Z,15.70
2022-10-18T20:02:13.980Z,15.80
2022-10-18T20:04:40.631Z,15.80
2022-10-18T20:07:07.328Z,15.70
2022-10-18T20:09:34.004Z,15.80
2022-10-18T20:12:00.508Z,15.70
2022-10-18T20:14:27.124Z,15.60
2022-10-18T20:16:53.613Z,15.40
2022-10-18T20:19:20.125Z,15.60
2022-10-18T20:21:46.630Z,15.70
2022-10-18T20:24:15.863Z,15.70
2022-10-18T20:26:43.680Z,15.70
2022-10-18T20:29:10.425Z,15.60
2022-10-18T20:31:38.850Z,15.60
2022-10-18T20:34:08.280Z,15.40
2022-10-18T20:36:35.257Z,15.30
2022-10-18T20:39:02.159Z,15.40
2022-10-18T20:41:30.977Z,15.20
2022-10-18T20:43:58.414Z,14.60
2022-10-18T20:46:26.813Z,14.50
2022-10-18T20:48:54.284Z,14.20
2022-10-18T20:51:21.611Z,14.50
2022-10-18T20:53:48.271Z,14.50
2022-10-18T20:56:20.698Z,14.80
2022-10-18T20:58:53.650Z,14.70
2022-10-18T21:01:22.498Z,14.70
2022-10-18T21:03:50.380Z,14.90
2022-10-18T21:06:25.466Z,15.00
2022-10-18T21:09:08.991Z,14.80
2022-10-18T21:11:36.983Z,14.50
2022-10-18T21:14:04.063Z,14.20
2022-10-18T21:16:32.139Z,14.60
2022-10-18T21:19:06.940Z,14.60
2022-10-18T21:21:33.835Z,14.80
2022-10-18T21:24:03.846Z,14.60
2022-10-18T21:26:33.628Z,14.80
2022-10-18T21:29:00.461Z,14.70
2022-10-18T21:31:29.733Z,14.80
2022-10-18T21:34:01.747Z,14.60
2022-10-18T21:36:32.052Z,14.40
2022-10-18T21:38:58.547Z,14.70
2022-10-18T21:41:25.199Z,14.50
2022-10-18T21:43:54.098Z,14.40
2022-10-18T21:46:22.213Z,14.60
2022-10-18T21:48:50.818Z,14.80
2022-10-18T21:51:18.889Z,14.90
2022-10-18T21:53:46.969Z,14.90
2022-10-18T21:56:16.093Z,14.80
2022-10-18T21:58:44.607Z,14.70
2022-10-18T22:01:19.370Z,14.70
2022-10-18T22:03:48.017Z,14.70
2022-10-18T22:06:16.325Z,14.50
2022-10-18T22:08:51.612Z,14.70
2022-10-18T22:11:19.792Z,14.10
2022-10-18T22:13:46.883Z,14.40
2022-10-18T22:16:14.740Z,14.20
2022-10-18T22:18:41.985Z,14.40
2022-10-18T22:21:11.809Z,14.40
2022-10-18T22:23:57.662Z,14.50
2022-10-18T22:26:29.431Z,14.20
2022-10-18T22:28:58.724Z,14.20
2022-10-18T22:31:26.414Z,14.00
2022-10-18T22:34:04.725Z,13.80
2022-10-18T22:36:31.769Z,13.90
2022-10-18T22:38:58.441Z,14.10
2022-10-18T22:41:24.956Z,14.00
2022-10-18T22:43:52.228Z,13.90
2022-10-18T22:46:19.042Z,13.80
2022-10-18T22:48:45.656Z,13.50
2022-10-18T22:51:12.741Z,13.70
2022-10-18T22:53:40.087Z,13.90
2022-10-18T22:56:07.869Z,13.60
2022-10-18T22:58:34.395Z,13.40
2022-10-18T23:01:06.282Z,13.20
2022-10-18T23:03:33.144Z,13.20
2022-10-18T23:05:59.842Z,13.20
2022-10-18T23:08:27.152Z,13.40
2022-10-18T23:10:55.670Z,13.50
2022-10-18T23:13:23.447Z,13.80
2022-10-18T23:15:50.517Z,14.00
2022-10-18T23:18:17.945Z,13.70
2022-10-18T23:20:45.423Z,13.20
2022-10-18T23:23:13.270Z,13.30
2022-10-18T23:25:39.810Z,13.80
2022-10-18T23:28:06.366Z,13.90
2022-10-18T23:30:33.777Z,13.80
2022-10-18T23:33:00.271Z,13.70
2022-10-18T23:35:29.260Z,13.40
2022-10-18T23:37:55.732Z,13.30
2022-10-18T23:40:22.246Z,13.70
2022-10-18T23:42:48.807Z,13.40
2022-10-18T23:45:15.409Z,13.10
2022-10-18T23:47:41.922Z,12.80
2022-10-18T23:50:08.815Z,12.50
2022-10-18T23:52:35.340Z,12.30
2022-10-18T23:55:01.860Z,12.10
2022-10-18T23:57:28.845Z,12.00
2022-10-18T23:59:55.365Z,11.90
